sensor_id;sensor_type;location;lat;lon;timestamp;pressure;altitude;pressure_sealevel;temperature;humidity
75513;BME280;64090;49.770;18.760;2023-01-26T00:00:43;98308.61;;;-1.32;87.31
75513;BME280;64090;49.770;18.760;2023-01-26T00:03:55;98305.20;;;-1.30;87.42
75513;BME280;64090;49.770;18.760;2023-01-26T00:06:59;98295.28;;;-1.34;87.53
75513;BME280;64090;49.770;18.760;2023-01-26T00:10:02;98294.48;;;-1.35;87.45
75513;BME280;64090;49.770;18.760;2023-01-26T00:13:08;98294.31;;;-1.35;87.28
75513;BME280;64090;49.770;18.760;2023-01-26T00:16:13;98290.60;;;-1.34;87.53
75513;BME280;64090;49.770;18.760;2023-01-26T00:19:16;98286.35;;;-1.34;87.91
75513;BME280;64090;49.770;18.760;2023-01-26T00:22:20;98284.10;;;-1.32;87.71
75513;BME280;64090;49.770;18.760;2023-01-26T00:25:23;98274.92;;;-1.29;87.64
75513;BME280;64090;49.770;18.760;2023-01-26T00:28:27;98273.17;;;-1.29;87.56
75513;BME280;64090;49.770;18.760;2023-01-26T00:31:30;98271.04;;;-1.31;87.79
75513;BME280;64090;49.770;18.760;2023-01-26T00:34:33;98270.55;;;-1.32;87.53
75513;BME280;64090;49.770;18.760;2023-01-26T00:37:36;98264.95;;;-1.31;87.78
75513;BME280;64090;49.770;18.760;2023-01-26T00:40:39;98261.05;;;-1.30;87.78
75513;BME280;64090;49.770;18.760;2023-01-26T00:43:42;98258.20;;;-1.29;87.92
75513;BME280;64090;49.770;18.760;2023-01-26T00:46:45;98259.36;;;-1.28;87.91
75513;BME280;64090;49.770;18.760;2023-01-26T00:49:49;98252.98;;;-1.29;87.88
75513;BME280;64090;49.770;18.760;2023-01-26T00:52:52;98253.73;;;-1.30;87.79
75513;BME280;64090;49.770;18.760;2023-01-26T00:55:55;98246.89;;;-1.29;87.94
75513;BME280;64090;49.770;18.760;2023-01-26T00:58:59;98245.74;;;-1.27;87.95
75513;BME280;64090;49.770;18.760;2023-01-26T01:02:02;98238.25;;;-1.27;88.09
75513;BME280;64090;49.770;18.760;2023-01-26T01:05:06;98238.23;;;-1.25;87.87
75513;BME280;64090;49.770;18.760;2023-01-26T01:08:09;98231.29;;;-1.23;87.63
75513;BME280;64090;49.770;18.760;2023-01-26T01:11:11;98232.69;;;-1.23;87.81
75513;BME280;64090;49.770;18.760;2023-01-26T01:14:15;98227.19;;;-1.23;87.85
75513;BME280;64090;49.770;18.760;2023-01-26T01:17:18;98223.19;;;-1.24;87.70
75513;BME280;64090;49.770;18.760;2023-01-26T01:20:21;98220.36;;;-1.23;87.82
75513;BME280;64090;49.770;18.760;2023-01-26T01:23:27;98223.17;;;-1.24;87.68
75513;BME280;64090;49.770;18.760;2023-01-26T01:26:30;98218.94;;;-1.25;87.60
75513;BME280;64090;49.770;18.760;2023-01-26T01:29:34;98216.42;;;-1.26;87.99
75513;BME280;64090;49.770;18.760;2023-01-26T01:32:37;98220.02;;;-1.28;88.05
75513;BME280;64090;49.770;18.760;2023-01-26T01:35:41;98222.40;;;-1.29;88.02
75513;BME280;64090;49.770;18.760;2023-01-26T01:38:45;98215.45;;;-1.29;88.08
75513;BME280;64090;49.770;18.760;2023-01-26T01:41:48;98214.60;;;-1.32;88.05
75513;BME280;64090;49.770;18.760;2023-01-26T01:48:52;98212.42;;;-1.31;88.21
75513;BME280;64090;49.770;18.760;2023-01-26T01:55:14;98214.77;;;-1.29;88.24
75513;BME280;64090;49.770;18.760;2023-01-26T01:58:18;98213.80;;;-1.31;88.19
75513;BME280;64090;49.770;18.760;2023-01-26T02:01:22;98208.36;;;-1.30;88.37
75513;BME280;64090;49.770;18.760;2023-01-26T02:04:26;98207.89;;;-1.31;88.17
75513;BME280;64090;49.770;18.760;2023-01-26T02:07:31;98205.55;;;-1.29;88.17
75513;BME280;64090;49.770;18.760;2023-01-26T02:10:34;98205.65;;;-1.28;88.18
75513;BME280;64090;49.770;18.760;2023-01-26T02:13:40;98204.45;;;-1.31;88.57
75513;BME280;64090;49.770;18.760;2023-01-26T02:16:44;98201.98;;;-1.33;88.39
75513;BME280;64090;49.770;18.760;2023-01-26T02:26:26;98188.05;;;-1.30;88.04
75513;BME280;64090;49.770;18.760;2023-01-26T02:29:30;98185.39;;;-1.29;87.87
75513;BME280;64090;49.770;18.760;2023-01-26T02:32:33;98181.05;;;-1.29;88.03
75513;BME280;64090;49.770;18.760;2023-01-26T02:35:36;98181.21;;;-1.29;88.01
75513;BME280;64090;49.770;18.760;2023-01-26T02:38:41;98181.84;;;-1.28;88.21
75513;BME280;64090;49.770;18.760;2023-01-26T02:41:46;98182.45;;;-1.27;88.55
75513;BME280;64090;49.770;18.760;2023-01-26T02:45:13;98175.59;;;-1.26;88.21
75513;BME280;64090;49.770;18.760;2023-01-26T02:48:17;98177.41;;;-1.25;88.24
75513;BME280;64090;49.770;18.760;2023-01-26T02:51:38;98174.02;;;-1.26;88.09
75513;BME280;64090;49.770;18.760;2023-01-26T02:54:41;98173.91;;;-1.27;88.20
75513;BME280;64090;49.770;18.760;2023-01-26T02:58:04;98175.52;;;-1.30;88.21
75513;BME280;64090;49.770;18.760;2023-01-26T03:01:07;98173.93;;;-1.30;88.15
75513;BME280;64090;49.770;18.760;2023-01-26T03:04:09;98169.20;;;-1.29;88.08
75513;BME280;64090;49.770;18.760;2023-01-26T03:07:12;98169.89;;;-1.27;88.47
75513;BME280;64090;49.770;18.760;2023-01-26T03:10:16;98168.31;;;-1.25;88.09
75513;BME280;64090;49.770;18.760;2023-01-26T03:13:19;98167.18;;;-1.25;88.41
75513;BME280;64090;49.770;18.760;2023-01-26T03:16:22;98157.89;;;-1.27;88.20
75513;BME280;64090;49.770;18.760;2023-01-26T03:19:25;98153.69;;;-1.26;88.18
75513;BME280;64090;49.770;18.760;2023-01-26T03:22:47;98149.43;;;-1.25;87.96
75513;BME280;64090;49.770;18.760;2023-01-26T03:26:16;98145.15;;;-1.26;88.32
75513;BME280;64090;49.770;18.760;2023-01-26T03:29:38;98145.21;;;-1.27;88.24
75513;BME280;64090;49.770;18.760;2023-01-26T03:32:41;98134.36;;;-1.28;88.19
75513;BME280;64090;49.770;18.760;2023-01-26T03:35:44;98133.00;;;-1.31;88.38
75513;BME280;64090;49.770;18.760;2023-01-26T03:38:47;98134.23;;;-1.34;88.68
75513;BME280;64090;49.770;18.760;2023-01-26T03:41:50;98133.53;;;-1.33;88.49
75513;BME280;64090;49.770;18.760;2023-01-26T03:45:12;98132.95;;;-1.33;88.43
75513;BME280;64090;49.770;18.760;2023-01-26T03:48:33;98125.39;;;-1.34;88.54
75513;BME280;64090;49.770;18.760;2023-01-26T03:51:55;98121.23;;;-1.34;88.39
75513;BME280;64090;49.770;18.760;2023-01-26T03:55:17;98118.85;;;-1.33;88.45
75513;BME280;64090;49.770;18.760;2023-01-26T03:58:38;98115.11;;;-1.33;88.85
75513;BME280;64090;49.770;18.760;2023-01-26T04:01:44;98107.38;;;-1.34;88.26
75513;BME280;64090;49.770;18.760;2023-01-26T04:05:07;98107.08;;;-1.35;88.52
75513;BME280;64090;49.770;18.760;2023-01-26T04:08:28;98106.11;;;-1.36;88.69
75513;BME280;64090;49.770;18.760;2023-01-26T04:11:32;98098.59;;;-1.36;88.46
75513;BME280;64090;49.770;18.760;2023-01-26T04:14:35;98092.77;;;-1.34;88.22
75513;BME280;64090;49.770;18.760;2023-01-26T04:17:56;98094.91;;;-1.35;88.15
75513;BME280;64090;49.770;18.760;2023-01-26T04:21:18;98100.70;;;-1.36;88.48
75513;BME280;64090;49.770;18.760;2023-01-26T04:24:31;98090.67;;;-1.36;88.88
75513;BME280;64090;49.770;18.760;2023-01-26T04:27:34;98086.60;;;-1.38;88.72
75513;BME280;64090;49.770;18.760;2023-01-26T04:30:37;98082.86;;;-1.39;89.08
75513;BME280;64090;49.770;18.760;2023-01-26T04:33:41;98083.19;;;-1.39;89.11
75513;BME280;64090;49.770;18.760;2023-01-26T04:36:45;98081.77;;;-1.38;88.74
75513;BME280;64090;49.770;18.760;2023-01-26T04:39:48;98080.02;;;-1.38;88.84
75513;BME280;64090;49.770;18.760;2023-01-26T04:42:51;98079.16;;;-1.38;88.87
75513;BME280;64090;49.770;18.760;2023-01-26T04:46:02;98073.77;;;-1.38;88.80
75513;BME280;64090;49.770;18.760;2023-01-26T04:49:06;98072.81;;;-1.39;89.16
75513;BME280;64090;49.770;18.760;2023-01-26T04:52:09;98073.56;;;-1.40;88.89
75513;BME280;64090;49.770;18.760;2023-01-26T04:55:12;98070.02;;;-1.39;89.03
75513;BME280;64090;49.770;18.760;2023-01-26T04:58:15;98070.05;;;-1.40;88.95
75513;BME280;64090;49.770;18.760;2023-01-26T05:01:18;98066.63;;;-1.38;88.68
75513;BME280;64090;49.770;18.760;2023-01-26T05:04:22;98066.59;;;-1.36;88.49
75513;BME280;64090;49.770;18.760;2023-01-26T05:07:25;98066.19;;;-1.35;88.55
75513;BME280;64090;49.770;18.760;2023-01-26T05:10:28;98070.21;;;-1.35;88.64
75513;BME280;64090;49.770;18.760;2023-01-26T05:13:31;98070.23;;;-1.37;88.70
75513;BME280;64090;49.770;18.760;2023-01-26T05:16:34;98069.28;;;-1.38;88.73
75513;BME280;64090;49.770;18.760;2023-01-26T05:19:37;98071.84;;;-1.40;88.73
75513;BME280;64090;49.770;18.760;2023-01-26T05:22:40;98073.05;;;-1.40;88.92
75513;BME280;64090;49.770;18.760;2023-01-26T05:25:43;98072.64;;;-1.39;88.78
75513;BME280;64090;49.770;18.760;2023-01-26T05:28:46;98067.84;;;-1.40;88.98
75513;BME280;64090;49.770;18.760;2023-01-26T05:31:49;98070.59;;;-1.42;89.28
75513;BME280;64090;49.770;18.760;2023-01-26T05:34:52;98070.10;;;-1.42;89.16
75513;BME280;64090;49.770;18.760;2023-01-26T05:37:55;98067.14;;;-1.42;89.03
75513;BME280;64090;49.770;18.760;2023-01-26T05:40:59;98064.95;;;-1.41;88.89
75513;BME280;64090;49.770;18.760;2023-01-26T05:44:01;98064.90;;;-1.40;88.96
75513;BME280;64090;49.770;18.760;2023-01-26T05:47:05;98063.15;;;-1.40;88.88
75513;BME280;64090;49.770;18.760;2023-01-26T05:50:08;98062.80;;;-1.38;88.77
75513;BME280;64090;49.770;18.760;2023-01-26T05:53:11;98060.49;;;-1.37;88.83
75513;BME280;64090;49.770;18.760;2023-01-26T05:56:15;98059.77;;;-1.37;88.69
75513;BME280;64090;49.770;18.760;2023-01-26T05:59:18;98055.08;;;-1.37;88.93
75513;BME280;64090;49.770;18.760;2023-01-26T06:02:21;98056.16;;;-1.38;88.88
75513;BME280;64090;49.770;18.760;2023-01-26T06:05:24;98057.69;;;-1.37;88.81
75513;BME280;64090;49.770;18.760;2023-01-26T06:08:27;98056.25;;;-1.36;88.82
75513;BME280;64090;49.770;18.760;2023-01-26T06:11:33;98048.70;;;-1.36;88.99
75513;BME280;64090;49.770;18.760;2023-01-26T06:14:36;98050.45;;;-1.36;89.19
75513;BME280;64090;49.770;18.760;2023-01-26T06:17:39;98050.22;;;-1.35;89.23
75513;BME280;64090;49.770;18.760;2023-01-26T06:20:42;98048.89;;;-1.36;89.41
75513;BME280;64090;49.770;18.760;2023-01-26T06:23:46;98049.70;;;-1.35;89.18
75513;BME280;64090;49.770;18.760;2023-01-26T06:26:49;98052.75;;;-1.34;89.00
75513;BME280;64090;49.770;18.760;2023-01-26T06:29:52;98053.00;;;-1.33;89.07
75513;BME280;64090;49.770;18.760;2023-01-26T06:32:55;98055.50;;;-1.31;89.15
75513;BME280;64090;49.770;18.760;2023-01-26T06:36:06;98049.42;;;-1.29;88.96
75513;BME280;64090;49.770;18.760;2023-01-26T06:39:10;98050.02;;;-1.26;89.00
75513;BME280;64090;49.770;18.760;2023-01-26T06:42:14;98052.27;;;-1.23;88.94
75513;BME280;64090;49.770;18.760;2023-01-26T06:45:17;98054.04;;;-1.22;89.17
75513;BME280;64090;49.770;18.760;2023-01-26T06:48:26;98052.05;;;-1.21;88.90
75513;BME280;64090;49.770;18.760;2023-01-26T06:54:49;98051.08;;;-1.15;89.16
75513;BME280;64090;49.770;18.760;2023-01-26T06:57:52;98048.91;;;-1.12;88.89
75513;BME280;64090;49.770;18.760;2023-01-26T07:00:55;98051.15;;;-1.10;88.55
75513;BME280;64090;49.770;18.760;2023-01-26T07:03:59;98050.05;;;-1.07;88.60
75513;BME280;64090;49.770;18.760;2023-01-26T07:07:02;98048.61;;;-1.04;88.81
75513;BME280;64090;49.770;18.760;2023-01-26T07:10:05;98048.36;;;-1.03;89.05
75513;BME280;64090;49.770;18.760;2023-01-26T07:13:09;98047.96;;;-1.00;88.85
75513;BME280;64090;49.770;18.760;2023-01-26T07:16:14;98043.26;;;-0.96;88.62
75513;BME280;64090;49.770;18.760;2023-01-26T07:19:17;98043.63;;;-0.94;88.82
75513;BME280;64090;49.770;18.760;2023-01-26T07:22:20;98035.45;;;-0.92;88.82
75513;BME280;64090;49.770;18.760;2023-01-26T07:25:23;98028.08;;;-0.91;88.61
75513;BME280;64090;49.770;18.760;2023-01-26T07:28:26;98022.59;;;-0.90;88.94
75513;BME280;64090;49.770;18.760;2023-01-26T07:31:29;98022.89;;;-0.87;88.87
75513;BME280;64090;49.770;18.760;2023-01-26T07:34:32;98019.14;;;-0.82;88.55
75513;BME280;64090;49.770;18.760;2023-01-26T07:37:35;98016.58;;;-0.74;88.57
75513;BME280;64090;49.770;18.760;2023-01-26T07:40:38;98014.31;;;-0.68;88.50
75513;BME280;64090;49.770;18.760;2023-01-26T07:43:41;98013.98;;;-0.61;88.62
75513;BME280;64090;49.770;18.760;2023-01-26T07:46:44;98009.63;;;-0.57;88.40
75513;BME280;64090;49.770;18.760;2023-01-26T07:49:47;98011.74;;;-0.51;88.42
75513;BME280;64090;49.770;18.760;2023-01-26T07:52:50;98010.92;;;-0.43;88.30
75513;BME280;64090;49.770;18.760;2023-01-26T07:56:03;98005.91;;;-0.35;88.33
75513;BME280;64090;49.770;18.760;2023-01-26T07:59:09;98008.74;;;-0.28;88.13
75513;BME280;64090;49.770;18.760;2023-01-26T08:02:13;98009.81;;;-0.18;88.13
75513;BME280;64090;49.770;18.760;2023-01-26T08:05:16;98007.15;;;-0.09;87.63
75513;BME280;64090;49.770;18.760;2023-01-26T08:08:19;98007.31;;;-0.03;87.66
75513;BME280;64090;49.770;18.760;2023-01-26T08:11:22;98011.61;;;-0.01;87.41
75513;BME280;64090;49.770;18.760;2023-01-26T08:14:27;98009.83;;;0.07;87.69
75513;BME280;64090;49.770;18.760;2023-01-26T08:17:47;98005.95;;;0.17;87.64
75513;BME280;64090;49.770;18.760;2023-01-26T08:20:52;98005.41;;;0.23;87.21
75513;BME280;64090;49.770;18.760;2023-01-26T08:23:55;98006.29;;;0.29;87.19
75513;BME280;64090;49.770;18.760;2023-01-26T08:27:03;98008.11;;;0.36;87.25
75513;BME280;64090;49.770;18.760;2023-01-26T08:30:07;98005.73;;;0.39;86.26
75513;BME280;64090;49.770;18.760;2023-01-26T08:33:11;98005.83;;;0.44;86.08
75513;BME280;64090;49.770;18.760;2023-01-26T08:36:14;98008.12;;;0.48;85.49
75513;BME280;64090;49.770;18.760;2023-01-26T08:39:17;98005.91;;;0.57;86.88
75513;BME280;64090;49.770;18.760;2023-01-26T08:42:20;98002.20;;;0.69;86.68
75513;BME280;64090;49.770;18.760;2023-01-26T08:45:24;97999.75;;;0.79;85.97
75513;BME280;64090;49.770;18.760;2023-01-26T08:48:27;97998.96;;;0.88;86.06
75513;BME280;64090;49.770;18.760;2023-01-26T08:51:32;97991.56;;;0.97;85.38
75513;BME280;64090;49.770;18.760;2023-01-26T08:54:35;97994.55;;;1.10;84.87
75513;BME280;64090;49.770;18.760;2023-01-26T08:57:38;97994.02;;;1.20;85.00
75513;BME280;64090;49.770;18.760;2023-01-26T09:00:41;97996.78;;;1.32;84.57
75513;BME280;64090;49.770;18.760;2023-01-26T09:03:44;98002.11;;;1.40;84.60
75513;BME280;64090;49.770;18.760;2023-01-26T09:06:47;98003.15;;;1.42;83.51
75513;BME280;64090;49.770;18.760;2023-01-26T09:09:50;98007.83;;;1.46;83.76
75513;BME280;64090;49.770;18.760;2023-01-26T09:12:53;98009.05;;;1.52;83.09
75513;BME280;64090;49.770;18.760;2023-01-26T09:15:56;98008.70;;;1.62;83.10
75513;BME280;64090;49.770;18.760;2023-01-26T09:19:01;98014.17;;;1.74;83.34
75513;BME280;64090;49.770;18.760;2023-01-26T09:22:04;98013.70;;;1.83;82.98
75513;BME280;64090;49.770;18.760;2023-01-26T09:25:07;98010.06;;;1.87;82.32
75513;BME280;64090;49.770;18.760;2023-01-26T09:28:11;98011.58;;;1.91;82.80
75513;BME280;64090;49.770;18.760;2023-01-26T09:31:14;98009.27;;;1.91;82.43
75513;BME280;64090;49.770;18.760;2023-01-26T09:34:17;98009.29;;;2.02;83.88
75513;BME280;64090;49.770;18.760;2023-01-26T09:37:20;98004.41;;;2.17;83.08
75513;BME280;64090;49.770;18.760;2023-01-26T09:40:42;98004.16;;;2.14;82.55
75513;BME280;64090;49.770;18.760;2023-01-26T09:43:59;98004.56;;;2.21;82.71
75513;BME280;64090;49.770;18.760;2023-01-26T09:47:20;98001.27;;;2.37;82.62
75513;BME280;64090;49.770;18.760;2023-01-26T09:50:34;97997.13;;;2.48;81.47
75513;BME280;64090;49.770;18.760;2023-01-26T09:53:52;97992.17;;;2.53;80.85
75513;BME280;64090;49.770;18.760;2023-01-26T09:56:56;97988.35;;;2.64;80.16
75513;BME280;64090;49.770;18.760;2023-01-26T10:00:07;97988.18;;;2.75;80.61
75513;BME280;64090;49.770;18.760;2023-01-26T10:03:35;97980.59;;;2.77;79.19
75513;BME280;64090;49.770;18.760;2023-01-26T10:06:43;97975.73;;;2.80;77.50
75513;BME280;64090;49.770;18.760;2023-01-26T10:09:48;97968.13;;;2.89;78.29
75513;BME280;64090;49.770;18.760;2023-01-26T10:12:52;97965.01;;;2.95;78.74
75513;BME280;64090;49.770;18.760;2023-01-26T10:15:59;97965.01;;;2.88;75.36
75513;BME280;64090;49.770;18.760;2023-01-26T10:19:11;97963.52;;;2.87;79.20
75513;BME280;64090;49.770;18.760;2023-01-26T10:22:28;97955.95;;;2.82;80.06
75513;BME280;64090;49.770;18.760;2023-01-26T10:25:35;97956.39;;;2.79;79.71
75513;BME280;64090;49.770;18.760;2023-01-26T10:28:41;97954.20;;;2.72;79.34
75513;BME280;64090;49.770;18.760;2023-01-26T10:31:44;97952.58;;;2.74;79.86
75513;BME280;64090;49.770;18.760;2023-01-26T10:34:49;97944.77;;;2.93;80.06
75513;BME280;64090;49.770;18.760;2023-01-26T10:37:53;97944.73;;;3.14;79.97
75513;BME280;64090;49.770;18.760;2023-01-26T10:40:58;97938.73;;;3.29;78.95
75513;BME280;64090;49.770;18.760;2023-01-26T10:47:29;97935.02;;;3.24;77.94
75513;BME280;64090;49.770;18.760;2023-01-26T10:50:33;97929.66;;;3.20;77.67
75513;BME280;64090;49.770;18.760;2023-01-26T10:53:36;97929.75;;;2.98;76.49
75513;BME280;64090;49.770;18.760;2023-01-26T10:56:56;97932.73;;;2.85;76.03
75513;BME280;64090;49.770;18.760;2023-01-26T11:00:05;97926.20;;;2.67;76.52
75513;BME280;64090;49.770;18.760;2023-01-26T11:03:17;97931.73;;;2.59;76.94
75513;BME280;64090;49.770;18.760;2023-01-26T11:06:27;97932.23;;;2.53;76.49
75513;BME280;64090;49.770;18.760;2023-01-26T11:09:30;97931.11;;;2.43;76.22
75513;BME280;64090;49.770;18.760;2023-01-26T11:12:33;97924.98;;;2.32;76.47
75513;BME280;64090;49.770;18.760;2023-01-26T11:15:38;97924.30;;;2.19;76.30
75513;BME280;64090;49.770;18.760;2023-01-26T11:18:59;97925.38;;;2.08;76.87
75513;BME280;64090;49.770;18.760;2023-01-26T11:22:10;97925.83;;;2.14;76.76
75513;BME280;64090;49.770;18.760;2023-01-26T11:25:17;97919.91;;;2.08;76.89
75513;BME280;64090;49.770;18.760;2023-01-26T11:28:50;97918.52;;;1.96;77.15
75513;BME280;64090;49.770;18.760;2023-01-26T11:32:05;97918.92;;;1.85;77.56
75513;BME280;64090;49.770;18.760;2023-01-26T11:38:39;97914.04;;;1.91;77.45
75513;BME280;64090;49.770;18.760;2023-01-26T11:45:27;97907.97;;;1.74;77.84
75513;BME280;64090;49.770;18.760;2023-01-26T11:48:54;97907.86;;;1.68;77.85
75513;BME280;64090;49.770;18.760;2023-01-26T11:55:44;97903.19;;;1.67;78.35
75513;BME280;64090;49.770;18.760;2023-01-26T11:59:16;97894.29;;;1.77;77.99
75513;BME280;64090;49.770;18.760;2023-01-26T12:02:35;97887.45;;;1.81;77.75
75513;BME280;64090;49.770;18.760;2023-01-26T12:05:40;97879.67;;;1.80;77.17
75513;BME280;64090;49.770;18.760;2023-01-26T12:08:52;97874.86;;;1.77;77.27
75513;BME280;64090;49.770;18.760;2023-01-26T12:15:16;97867.83;;;1.83;77.29
75513;BME280;64090;49.770;18.760;2023-01-26T12:18:30;97865.64;;;1.84;76.84
75513;BME280;64090;49.770;18.760;2023-01-26T12:21:59;97863.39;;;1.82;76.88
75513;BME280;64090;49.770;18.760;2023-01-26T12:25:22;97859.60;;;1.83;76.42
75513;BME280;64090;49.770;18.760;2023-01-26T12:28:33;97854.05;;;1.82;76.50
75513;BME280;64090;49.770;18.760;2023-01-26T12:31:47;97852.85;;;1.77;76.55
75513;BME280;64090;49.770;18.760;2023-01-26T12:34:51;97851.49;;;1.69;76.53
75513;BME280;64090;49.770;18.760;2023-01-26T12:38:04;97853.40;;;1.67;76.91
75513;BME280;64090;49.770;18.760;2023-01-26T12:47:48;97853.64;;;1.60;76.94
75513;BME280;64090;49.770;18.760;2023-01-26T12:51:02;97851.09;;;1.57;76.88
75513;BME280;64090;49.770;18.760;2023-01-26T12:57:20;97843.45;;;1.52;77.34
75513;BME280;64090;49.770;18.760;2023-01-26T13:00:29;97846.45;;;1.53;77.35
75513;BME280;64090;49.770;18.760;2023-01-26T13:03:35;97844.42;;;1.55;77.37
75513;BME280;64090;49.770;18.760;2023-01-26T13:06:40;97839.31;;;1.58;77.35
75513;BME280;64090;49.770;18.760;2023-01-26T13:22:40;97832.89;;;1.50;77.63
75513;BME280;64090;49.770;18.760;2023-01-26T13:25:48;97832.36;;;1.50;77.94
75513;BME280;64090;49.770;18.760;2023-01-26T13:35:30;97843.93;;;1.47;78.25
75513;BME280;64090;49.770;18.760;2023-01-26T13:38:41;97846.60;;;1.42;78.38
75513;BME280;64090;49.770;18.760;2023-01-26T13:41:46;97847.58;;;1.39;78.65
75513;BME280;64090;49.770;18.760;2023-01-26T13:44:57;97840.75;;;1.37;78.78
75513;BME280;64090;49.770;18.760;2023-01-26T13:48:06;97834.39;;;1.34;78.51
75513;BME280;64090;49.770;18.760;2023-01-26T13:51:28;97834.89;;;1.28;78.38
75513;BME280;64090;49.770;18.760;2023-01-26T13:54:31;97835.90;;;1.18;78.30
75513;BME280;64090;49.770;18.760;2023-01-26T13:57:34;97832.99;;;1.12;78.89
75513;BME280;64090;49.770;18.760;2023-01-26T14:00:37;97834.59;;;1.09;78.74
75513;BME280;64090;49.770;18.760;2023-01-26T14:03:40;97829.48;;;1.08;78.81
75513;BME280;64090;49.770;18.760;2023-01-26T14:07:06;97835.20;;;1.07;78.78
75513;BME280;64090;49.770;18.760;2023-01-26T14:10:15;97833.79;;;1.05;78.63
75513;BME280;64090;49.770;18.760;2023-01-26T14:13:30;97828.30;;;1.00;78.62
75513;BME280;64090;49.770;18.760;2023-01-26T14:16:35;97834.76;;;0.93;78.73
75513;BME280;64090;49.770;18.760;2023-01-26T14:19:39;97833.70;;;0.89;79.17
75513;BME280;64090;49.770;18.760;2023-01-26T14:22:44;97830.95;;;0.84;79.26
75513;BME280;64090;49.770;18.760;2023-01-26T14:25:57;97829.50;;;0.81;79.49
75513;BME280;64090;49.770;18.760;2023-01-26T14:29:00;97834.48;;;0.78;79.33
75513;BME280;64090;49.770;18.760;2023-01-26T14:32:14;97833.96;;;0.75;79.58
75513;BME280;64090;49.770;18.760;2023-01-26T14:35:20;97829.10;;;0.72;79.74
75513;BME280;64090;49.770;18.760;2023-01-26T14:38:26;97823.13;;;0.71;79.66
75513;BME280;64090;49.770;18.760;2023-01-26T14:41:32;97824.10;;;0.72;79.63
75513;BME280;64090;49.770;18.760;2023-01-26T14:44:36;97826.92;;;0.73;79.57
75513;BME280;64090;49.770;18.760;2023-01-26T14:47:40;97822.20;;;0.74;79.47
75513;BME280;64090;49.770;18.760;2023-01-26T14:50:45;97824.52;;;0.73;79.61
75513;BME280;64090;49.770;18.760;2023-01-26T14:53:50;97824.07;;;0.70;79.78
75513;BME280;64090;49.770;18.760;2023-01-26T14:56:55;97820.88;;;0.67;79.76
75513;BME280;64090;49.770;18.760;2023-01-26T15:00:00;97823.12;;;0.63;79.74
75513;BME280;64090;49.770;18.760;2023-01-26T15:03:13;97822.42;;;0.60;80.09
75513;BME280;64090;49.770;18.760;2023-01-26T15:06:20;97826.44;;;0.56;80.14
75513;BME280;64090;49.770;18.760;2023-01-26T15:09:26;97825.48;;;0.53;80.28
75513;BME280;64090;49.770;18.760;2023-01-26T15:12:33;97827.05;;;0.51;80.14
75513;BME280;64090;49.770;18.760;2023-01-26T15:15:39;97826.69;;;0.50;80.15
75513;BME280;64090;49.770;18.760;2023-01-26T15:18:43;97826.02;;;0.47;80.32
75513;BME280;64090;49.770;18.760;2023-01-26T15:21:46;97822.21;;;0.43;80.33
75513;BME280;64090;49.770;18.760;2023-01-26T15:25:04;97823.73;;;0.40;80.40
75513;BME280;64090;49.770;18.760;2023-01-26T15:28:19;97823.14;;;0.32;80.80
75513;BME280;64090;49.770;18.760;2023-01-26T15:31:39;97827.26;;;0.28;80.98
75513;BME280;64090;49.770;18.760;2023-01-26T15:34:46;97826.07;;;0.23;81.11
75513;BME280;64090;49.770;18.760;2023-01-26T15:38:04;97824.97;;;0.20;80.99
75513;BME280;64090;49.770;18.760;2023-01-26T15:41:08;97822.91;;;0.18;81.05
75513;BME280;64090;49.770;18.760;2023-01-26T15:44:17;97819.50;;;0.17;80.96
75513;BME280;64090;49.770;18.760;2023-01-26T15:47:20;97819.06;;;0.16;81.32
75513;BME280;64090;49.770;18.760;2023-01-26T15:50:23;97814.96;;;0.13;81.27
75513;BME280;64090;49.770;18.760;2023-01-26T15:53:29;97815.77;;;0.10;81.61
75513;BME280;64090;49.770;18.760;2023-01-26T15:56:32;97821.05;;;0.08;81.59
75513;BME280;64090;49.770;18.760;2023-01-26T15:59:36;97818.48;;;0.05;81.74
75513;BME280;64090;49.770;18.760;2023-01-26T16:02:39;97818.84;;;0.01;81.56
75513;BME280;64090;49.770;18.760;2023-01-26T16:05:42;97821.98;;;-0.02;81.48
75513;BME280;64090;49.770;18.760;2023-01-26T16:08:45;97823.00;;;-0.03;81.59
75513;BME280;64090;49.770;18.760;2023-01-26T16:11:50;97818.48;;;-0.05;81.78
75513;BME280;64090;49.770;18.760;2023-01-26T16:14:54;97819.49;;;-0.08;81.92
75513;BME280;64090;49.770;18.760;2023-01-26T16:17:57;97819.54;;;-0.11;82.05
75513;BME280;64090;49.770;18.760;2023-01-26T16:21:00;97823.54;;;-0.13;81.95
75513;BME280;64090;49.770;18.760;2023-01-26T16:24:03;97826.46;;;-0.14;82.38
75513;BME280;64090;49.770;18.760;2023-01-26T16:27:08;97822.41;;;-0.18;82.32
75513;BME280;64090;49.770;18.760;2023-01-26T16:30:11;97819.48;;;-0.24;82.38
75513;BME280;64090;49.770;18.760;2023-01-26T16:33:17;97816.56;;;-0.29;82.63
75513;BME280;64090;49.770;18.760;2023-01-26T16:36:22;97816.23;;;-0.35;83.32
75513;BME280;64090;49.770;18.760;2023-01-26T16:39:25;97814.67;;;-0.39;83.06
75513;BME280;64090;49.770;18.760;2023-01-26T16:42:28;97811.30;;;-0.42;83.75
75513;BME280;64090;49.770;18.760;2023-01-26T16:45:31;97810.55;;;-0.44;83.40
75513;BME280;64090;49.770;18.760;2023-01-26T16:48:37;97810.85;;;-0.43;83.04
75513;BME280;64090;49.770;18.760;2023-01-26T16:51:41;97810.20;;;-0.41;83.34
75513;BME280;64090;49.770;18.760;2023-01-26T16:54:45;97809.41;;;-0.40;83.47
75513;BME280;64090;49.770;18.760;2023-01-26T16:57:49;97804.48;;;-0.40;83.42
75513;BME280;64090;49.770;18.760;2023-01-26T17:00:53;97800.86;;;-0.40;83.63
75513;BME280;64090;49.770;18.760;2023-01-26T17:03:57;97794.81;;;-0.42;83.42
75513;BME280;64090;49.770;18.760;2023-01-26T17:07:00;97798.54;;;-0.43;83.82
75513;BME280;64090;49.770;18.760;2023-01-26T17:10:03;97801.03;;;-0.44;83.76
75513;BME280;64090;49.770;18.760;2023-01-26T17:13:06;97795.55;;;-0.43;83.69
75513;BME280;64090;49.770;18.760;2023-01-26T17:16:20;97793.92;;;-0.42;83.59
75513;BME280;64090;49.770;18.760;2023-01-26T17:19:24;97790.54;;;-0.41;83.60
75513;BME280;64090;49.770;18.760;2023-01-26T17:22:28;97790.82;;;-0.41;83.48
75513;BME280;64090;49.770;18.760;2023-01-26T17:25:32;97789.52;;;-0.44;83.81